createdAt,value
2023-02-23T00:00:02.854Z,5.59
2023-02-23T00:05:02.796Z,5.40
2023-02-23T00:10:02.728Z,5.09
2023-02-23T00:15:02.652Z,5.59
2023-02-23T00:20:02.603Z,4.90
2023-02-23T00:25:03.329Z,5.19
2023-02-23T00:30:02.477Z,4.69
2023-02-23T00:35:02.398Z,6.00
2023-02-23T00:40:02.340Z,6.09
2023-02-23T00:45:02.271Z,6.40
2023-02-23T00:50:02.243Z,6.19
2023-02-23T00:55:02.141Z,6.40
2023-02-23T01:00:02.089Z,6.69
2023-02-23T01:05:02.011Z,5.69
2023-02-23T01:10:01.948Z,5.50
2023-02-23T01:15:01.873Z,6.00
2023-02-23T01:20:01.816Z,4.90
2023-02-23T01:25:01.743Z,5.50
2023-02-23T01:30:01.683Z,5.19
2023-02-23T01:35:01.611Z,5.19
2023-02-23T01:40:01.554Z,5.59
2023-02-23T01:45:01.482Z,5.30
2023-02-23T01:50:01.432Z,5.50
2023-02-23T01:55:01.349Z,5.09
2023-02-23T02:00:01.302Z,5.40
2023-02-23T02:05:01.252Z,5.19
2023-02-23T02:10:01.161Z,5.30
2023-02-23T02:15:01.095Z,5.69
2023-02-23T02:20:01.040Z,5.59
2023-02-23T02:25:00.975Z,5.30
2023-02-23T02:30:00.901Z,5.30
2023-02-23T02:35:00.829Z,5.09
2023-02-23T02:40:00.769Z,4.30
2023-02-23T02:45:00.705Z,5.30
2023-02-23T02:50:00.654Z,5.00
2023-02-23T02:55:00.572Z,5.19
2023-02-23T03:00:00.515Z,5.30
2023-02-23T03:05:00.500Z,5.59
2023-02-23T03:10:00.397Z,5.19
2023-02-23T03:15:00.309Z,5.40
2023-02-23T03:20:00.254Z,5.50
2023-02-23T03:25:00.181Z,5.80
2023-02-23T03:30:00.163Z,5.59
2023-02-23T03:35:00.071Z,5.69
2023-02-23T03:39:59.989Z,6.00
2023-02-23T03:44:59.923Z,5.30
2023-02-23T03:49:59.859Z,5.30
2023-02-23T03:54:59.793Z,5.30
2023-02-23T03:59:59.726Z,5.50
2023-02-23T04:04:59.670Z,5.30
2023-02-23T04:09:59.606Z,5.00
2023-02-23T04:14:59.523Z,5.40
2023-02-23T04:19:59.462Z,5.80
2023-02-23T04:24:59.381Z,6.00
2023-02-23T04:29:59.314Z,6.59
2023-02-23T04:34:59.266Z,6.59
2023-02-23T04:39:59.192Z,6.30
2023-02-23T04:44:59.126Z,6.59
2023-02-23T04:49:59.056Z,7.30
2023-02-23T04:54:58.996Z,6.80
2023-02-23T04:59:58.932Z,7.09
2023-02-23T05:04:58.898Z,7.19
2023-02-23T05:09:58.796Z,8.60
2023-02-23T05:14:58.723Z,8.19
2023-02-23T05:19:58.664Z,7.50
2023-02-23T05:24:58.601Z,6.90
2023-02-23T05:29:58.531Z,6.50
2023-02-23T05:34:58.462Z,6.69
2023-02-23T05:39:58.404Z,6.80
2023-02-23T05:44:58.332Z,6.30
2023-02-23T05:49:58.467Z,7.40
2023-02-23T05:54:58.212Z,6.69
2023-02-23T05:59:58.139Z,6.69
2023-02-23T06:04:58.076Z,6.50
2023-02-23T06:09:58.004Z,6.59
2023-02-23T06:14:57.946Z,6.09
2023-02-23T06:19:57.877Z,6.80
2023-02-23T06:24:57.803Z,6.90
2023-02-23T06:29:57.756Z,7.59
2023-02-23T06:34:57.672Z,8.50
2023-02-23T06:39:57.626Z,8.19
2023-02-23T06:44:57.543Z,8.89
2023-02-23T06:49:57.502Z,9.30
2023-02-23T06:54:57.411Z,8.60
2023-02-23T06:59:57.367Z,9.50
2023-02-23T07:04:57.280Z,10.39
2023-02-23T07:09:57.228Z,9.39
2023-02-23T07:14:57.156Z,10.10
2023-02-23T07:19:57.094Z,10.39
2023-02-23T07:24:57.018Z,10.00
2023-02-23T07:29:56.958Z,10.60
2023-02-23T07:34:56.891Z,10.69
2023-02-23T07:39:56.833Z,12.80
2023-02-23T07:44:56.761Z,11.00
2023-02-23T07:49:56.718Z,10.89
2023-02-23T07:54:56.640Z,11.39
2023-02-23T07:59:56.610Z,11.19
2023-02-23T08:04:56.589Z,12.89
2023-02-23T08:09:56.457Z,13.19
2023-02-23T08:14:56.379Z,13.60
2023-02-23T08:19:56.328Z,13.30
2023-02-23T08:24:56.245Z,13.89
2023-02-23T08:29:56.185Z,13.19
2023-02-23T08:34:56.113Z,14.30
2023-02-23T08:39:56.054Z,13.39
2023-02-23T08:44:55.981Z,13.89
2023-02-23T08:49:55.919Z,14.10
2023-02-23T08:54:55.845Z,14.39
2023-02-23T08:59:55.790Z,13.80
2023-02-23T09:04:55.713Z,14.50
2023-02-23T09:09:55.668Z,13.89
2023-02-23T09:14:55.601Z,19.79
2023-02-23T09:19:55.531Z,14.50
2023-02-23T09:24:55.447Z,14.00
2023-02-23T09:29:55.419Z,13.50
2023-02-23T09:34:55.328Z,14.30
2023-02-23T09:39:57.633Z,14.30
2023-02-23T09:44:55.198Z,15.10
2023-02-23T09:49:55.137Z,14.50
2023-02-23T09:54:55.064Z,15.10
2023-02-23T09:59:55.011Z,13.39
2023-02-23T10:04:57.396Z,14.80
2023-02-23T10:09:54.896Z,14.69
2023-02-23T10:14:54.831Z,15.10
2023-02-23T10:19:54.778Z,15.60
2023-02-23T10:24:54.690Z,15.00
2023-02-23T10:29:54.641Z,14.50
2023-02-23T10:34:54.574Z,15.60
2023-02-23T10:39:54.515Z,15.10
2023-02-23T10:44:54.427Z,15.19
2023-02-23T10:49:54.398Z,15.10
2023-02-23T10:54:54.307Z,14.50
2023-02-23T10:59:54.247Z,15.69
2023-02-23T11:04:54.269Z,14.69
2023-02-23T11:09:54.109Z,16.20
2023-02-23T11:14:54.057Z,15.69
2023-02-23T11:19:53.978Z,15.00
2023-02-23T11:24:53.934Z,15.69
2023-02-23T11:29:53.850Z,14.19
2023-02-23T11:34:53.777Z,15.60
2023-02-23T11:39:53.723Z,16.10
2023-02-23T11:44:53.653Z,16.20
2023-02-23T11:49:53.587Z,16.29
2023-02-23T11:54:53.517Z,15.89
2023-02-23T11:59:53.467Z,17.00
2023-02-23T12:04:53.422Z,16.39
2023-02-23T12:09:53.325Z,15.89
2023-02-23T12:14:53.254Z,16.29
2023-02-23T12:19:53.190Z,17.39
2023-02-23T12:24:53.132Z,16.39
2023-02-23T12:29:53.054Z,17.70
2023-02-23T12:34:52.989Z,17.89
2023-02-23T12:39:52.917Z,17.89
2023-02-23T12:44:52.849Z,19.60
2023-02-23T12:49:52.788Z,19.89
2023-02-23T12:54:52.719Z,20.10
2023-02-23T12:59:52.643Z,18.50
2023-02-23T13:04:52.580Z,20.70
2023-02-23T13:09:52.512Z,19.79
2023-02-23T13:14:52.436Z,20.00
2023-02-23T13:20:47.146Z,23.50
2023-02-23T13:25:47.095Z,20.60
2023-02-23T13:30:47.171Z,20.50
2023-02-23T13:35:46.952Z,21.00
2023-02-23T13:40:46.913Z,20.70
2023-02-23T13:45:46.933Z,19.70
2023-02-23T13:50:46.831Z,20.20
2023-02-23T13:55:49.592Z,20.60
2023-02-23T14:00:46.619Z,23.20
2023-02-23T14:05:46.567Z,21.60
2023-02-23T14:10:46.489Z,22.39
2023-02-23T14:15:46.442Z,21.50
2023-02-23T14:20:46.376Z,20.39
2023-02-23T14:25:46.311Z,17.89
2023-02-23T14:30:46.357Z,17.00
2023-02-23T14:35:46.180Z,19.00
2023-02-23T14:40:46.133Z,18.20
2023-02-23T14:45:46.052Z,16.20
2023-02-23T14:50:45.995Z,17.50
2023-02-23T14:55:45.921Z,17.20
2023-02-23T15:00:45.937Z,18.00
2023-02-23T15:05:45.784Z,17.20
2023-02-23T15:10:45.709Z,18.29
2023-02-23T15:15:45.808Z,18.39
2023-02-23T15:20:45.592Z,18.89
2023-02-23T15:25:45.524Z,18.60
2023-02-23T15:30:45.449Z,19.89
2023-02-23T15:35:45.398Z,18.89
2023-02-23T15:40:45.317Z,18.39
2023-02-23T15:45:45.310Z,18.79
2023-02-23T15:50:45.195Z,19.20
2023-02-23T15:55:45.125Z,19.39
2023-02-23T16:00:45.085Z,19.79
2023-02-23T16:05:47.021Z,20.50
2023-02-23T16:10:44.930Z,18.50
2023-02-23T16:15:44.863Z,19.70
2023-02-23T16:20:44.800Z,20.20
2023-02-23T16:25:44.733Z,19.60
2023-02-23T16:30:44.664Z,20.79
2023-02-23T16:35:44.626Z,19.89
2023-02-23T16:40:44.529Z,19.29
2023-02-23T16:45:44.524Z,19.00
2023-02-23T16:50:44.399Z,19.29
2023-02-23T16:55:44.352Z,20.29
2023-02-23T17:00:44.269Z,19.70
2023-02-23T17:05:44.208Z,20.20
2023-02-23T17:10:44.147Z,19.50
2023-02-23T17:15:44.085Z,19.79
2023-02-23T17:20:44.012Z,19.00
2023-02-23T17:25:43.944Z,18.50
2023-02-23T17:30:43.914Z,18.79
2023-02-23T17:35:43.811Z,18.20
2023-02-23T17:40:43.747Z,18.79
2023-02-23T17:45:43.681Z,18.60
2023-02-23T17:50:43.614Z,18.20
2023-02-23T17:55:43.549Z,19.70
2023-02-23T18:00:43.485Z,20.00
2023-02-23T18:05:43.416Z,19.00
2023-02-23T18:10:43.344Z,19.20
2023-02-23T18:15:43.390Z,19.39
2023-02-23T18:20:43.222Z,21.50
2023-02-23T18:25:43.151Z,20.20
2023-02-23T18:30:43.089Z,21.50
2023-02-23T18:35:43.028Z,20.79
2023-02-23T18:40:42.973Z,22.29
2023-02-23T18:45:42.896Z,23.20
2023-02-23T18:50:42.836Z,22.89
2023-02-23T18:55:42.766Z,24.00
2023-02-23T19:00:42.899Z,23.60
2023-02-23T19:05:42.632Z,23.20
2023-02-23T19:10:42.557Z,23.50
2023-02-23T19:15:42.509Z,23.50
2023-02-23T19:20:42.429Z,23.20
2023-02-23T19:25:42.372Z,24.29
2023-02-23T19:30:42.294Z,23.39
2023-02-23T19:35:42.236Z,24.29
2023-02-23T19:40:42.173Z,24.89
2023-02-23T19:45:42.162Z,25.79
2023-02-23T19:50:42.057Z,26.70
2023-02-23T19:55:41.977Z,29.39
2023-02-23T20:00:41.925Z,27.50
2023-02-23T20:05:41.852Z,28.29
2023-02-23T20:10:41.791Z,26.10
2023-02-23T20:15:41.722Z,26.50
2023-02-23T20:20:41.666Z,27.10
2023-02-23T20:25:41.595Z,26.39
2023-02-23T20:30:41.526Z,24.60
2023-02-23T20:35:41.461Z,23.60
2023-02-23T20:40:41.378Z,24.29
2023-02-23T20:45:41.439Z,24.00
2023-02-23T20:50:41.390Z,23.79
2023-02-23T20:55:41.213Z,22.00
2023-02-23T21:00:41.131Z,21.00
2023-02-23T21:05:41.072Z,19.70
2023-02-23T21:10:40.993Z,19.00
2023-02-23T21:15:41.001Z,17.29
2023-02-23T21:20:40.910Z,17.00
2023-02-23T21:25:40.807Z,17.20
2023-02-23T21:30:40.766Z,17.89
2023-02-23T21:35:40.674Z,18.60
2023-02-23T21:40:40.599Z,18.29
2023-02-23T21:45:40.548Z,18.00
2023-02-23T21:50:40.471Z,17.39
2023-02-23T21:55:40.418Z,17.60
2023-02-23T22:00:40.345Z,16.39
2023-02-23T22:05:40.285Z,16.50
2023-02-23T22:10:40.201Z,18.39
2023-02-23T22:15:40.152Z,18.00
2023-02-23T22:20:40.066Z,18.00
2023-02-23T22:25:40.012Z,17.50
2023-02-23T22:30:39.936Z,15.89
2023-02-23T22:35:39.878Z,15.39
2023-02-23T22:40:39.825Z,15.50
2023-02-23T22:45:39.749Z,15.50
2023-02-23T22:50:39.676Z,15.10
2023-02-23T22:55:39.618Z,15.30
2023-02-23T23:00:39.544Z,15.00
2023-02-23T23:05:39.482Z,15.69
2023-02-23T23:10:39.406Z,14.60
2023-02-23T23:15:39.347Z,12.69
2023-02-23T23:20:39.280Z,13.30
2023-02-23T23:25:39.217Z,11.60
2023-02-23T23:30:39.142Z,11.00
2023-02-23T23:35:39.090Z,10.80
2023-02-23T23:40:39.016Z,9.19
2023-02-23T23:45:39.014Z,10.30
2023-02-23T23:50:38.891Z,9.30
2023-02-23T23:55:38.833Z,9.10
